sensor_id;sensor_type;location;lat;lon;timestamp;pressure;altitude;pressure_sealevel;temperature;humidity
7180;BME280;3631;42.152;24.756;2022-08-26T00:01:41;98703.91;;;26.02;72.22
7180;BME280;3631;42.152;24.756;2022-08-26T00:04:09;98666.34;;;26.06;73.26
7180;BME280;3631;42.152;24.756;2022-08-26T00:06:37;98674.50;;;26.12;73.72
7180;BME280;3631;42.152;24.756;2022-08-26T00:09:04;98672.31;;;26.08;72.59
7180;BME280;3631;42.152;24.756;2022-08-26T00:11:31;98659.53;;;26.03;72.39
7180;BME280;3631;42.152;24.756;2022-08-26T00:13:58;98668.50;;;26.02;72.37
7180;BME280;3631;42.152;24.756;2022-08-26T00:16:26;98677.16;;;26.04;71.92
7180;BME280;3631;42.152;24.756;2022-08-26T00:18:54;98676.00;;;26.07;71.44
7180;BME280;3631;42.152;24.756;2022-08-26T00:21:23;98684.97;;;26.06;71.56
7180;BME280;3631;42.152;24.756;2022-08-26T00:23:49;98687.94;;;26.02;71.54
7180;BME280;3631;42.152;24.756;2022-08-26T00:26:16;98688.25;;;25.99;70.97
7180;BME280;3631;42.152;24.756;2022-08-26T00:28:44;98687.47;;;26.07;70.92
7180;BME280;3631;42.152;24.756;2022-08-26T00:31:11;98680.81;;;26.03;71.66
7180;BME280;3631;42.152;24.756;2022-08-26T00:33:38;98678.66;;;26.07;71.92
7180;BME280;3631;42.152;24.756;2022-08-26T00:36:06;98681.47;;;26.05;71.89
7180;BME280;3631;42.152;24.756;2022-08-26T00:38:36;98666.97;;;25.91;71.72
7180;BME280;3631;42.152;24.756;2022-08-26T00:41:03;98686.75;;;25.97;71.85
7180;BME280;3631;42.152;24.756;2022-08-26T00:43:32;98696.41;;;25.98;71.90
7180;BME280;3631;42.152;24.756;2022-08-26T00:46:09;98689.91;;;25.92;72.28
7180;BME280;3631;42.152;24.756;2022-08-26T00:48:39;98661.81;;;25.82;72.00
7180;BME280;3631;42.152;24.756;2022-08-26T00:51:10;98683.59;;;25.93;72.50
7180;BME280;3631;42.152;24.756;2022-08-26T00:53:45;98681.94;;;25.92;72.25
7180;BME280;3631;42.152;24.756;2022-08-26T00:56:19;98678.97;;;25.95;72.47
7180;BME280;3631;42.152;24.756;2022-08-26T00:58:48;98660.47;;;25.86;72.85
7180;BME280;3631;42.152;24.756;2022-08-26T01:01:16;98675.28;;;25.96;71.90
7180;BME280;3631;42.152;24.756;2022-08-26T01:03:45;98671.94;;;25.86;72.46
7180;BME280;3631;42.152;24.756;2022-08-26T01:06:12;98674.94;;;25.91;72.25
7180;BME280;3631;42.152;24.756;2022-08-26T01:08:42;98667.59;;;25.85;72.64
7180;BME280;3631;42.152;24.756;2022-08-26T01:11:10;98679.06;;;25.86;73.08
7180;BME280;3631;42.152;24.756;2022-08-26T01:13:38;98680.91;;;25.85;72.30
7180;BME280;3631;42.152;24.756;2022-08-26T01:16:07;98680.06;;;25.85;72.49
7180;BME280;3631;42.152;24.756;2022-08-26T01:18:38;98683.56;;;25.85;72.65
7180;BME280;3631;42.152;24.756;2022-08-26T01:21:11;98686.06;;;25.87;72.84
7180;BME280;3631;42.152;24.756;2022-08-26T01:23:42;98681.41;;;25.81;72.85
7180;BME280;3631;42.152;24.756;2022-08-26T01:26:14;98667.94;;;25.82;73.07
7180;BME280;3631;42.152;24.756;2022-08-26T01:28:42;98667.13;;;25.82;72.86
7180;BME280;3631;42.152;24.756;2022-08-26T01:31:12;98652.13;;;25.73;72.91
7180;BME280;3631;42.152;24.756;2022-08-26T01:33:43;98663.25;;;25.76;72.82
7180;BME280;3631;42.152;24.756;2022-08-26T01:36:11;98652.13;;;25.73;73.13
7180;BME280;3631;42.152;24.756;2022-08-26T01:38:41;98647.97;;;25.70;72.29
7180;BME280;3631;42.152;24.756;2022-08-26T01:41:09;98639.59;;;25.57;73.09
7180;BME280;3631;42.152;24.756;2022-08-26T01:43:40;98656.41;;;25.65;72.84
7180;BME280;3631;42.152;24.756;2022-08-26T01:46:09;98658.91;;;25.67;72.52
7180;BME280;3631;42.152;24.756;2022-08-26T01:48:38;98653.41;;;25.60;72.96
7180;BME280;3631;42.152;24.756;2022-08-26T01:51:08;98662.34;;;25.59;73.15
7180;BME280;3631;42.152;24.756;2022-08-26T01:53:35;98655.69;;;25.55;73.10
7180;BME280;3631;42.152;24.756;2022-08-26T01:56:05;98662.97;;;25.53;72.97
7180;BME280;3631;42.152;24.756;2022-08-26T01:58:37;98670.94;;;25.53;73.38
7180;BME280;3631;42.152;24.756;2022-08-26T02:01:05;98669.63;;;25.49;73.22
7180;BME280;3631;42.152;24.756;2022-08-26T02:03:33;98668.72;;;25.41;74.17
7180;BME280;3631;42.152;24.756;2022-08-26T02:06:05;98673.19;;;25.40;74.30
7180;BME280;3631;42.152;24.756;2022-08-26T02:08:36;98671.56;;;25.39;74.48
7180;BME280;3631;42.152;24.756;2022-08-26T02:11:06;98670.72;;;25.39;74.25
7180;BME280;3631;42.152;24.756;2022-08-26T02:13:37;98671.38;;;25.41;74.74
7180;BME280;3631;42.152;24.756;2022-08-26T02:16:06;98682.50;;;25.36;74.58
7180;BME280;3631;42.152;24.756;2022-08-26T02:18:36;98680.63;;;25.28;74.93
7180;BME280;3631;42.152;24.756;2022-08-26T02:21:04;98676.78;;;25.23;75.53
7180;BME280;3631;42.152;24.756;2022-08-26T02:23:32;98670.09;;;25.19;76.11
7180;BME280;3631;42.152;24.756;2022-08-26T02:26:04;98669.28;;;25.18;75.90
7180;BME280;3631;42.152;24.756;2022-08-26T02:28:37;98666.13;;;25.15;76.19
7180;BME280;3631;42.152;24.756;2022-08-26T02:31:06;98642.16;;;25.07;75.71
7180;BME280;3631;42.152;24.756;2022-08-26T02:33:33;98662.97;;;25.19;76.17
7180;BME280;3631;42.152;24.756;2022-08-26T02:36:00;98658.97;;;25.15;76.10
7180;BME280;3631;42.152;24.756;2022-08-26T02:38:27;98668.88;;;25.05;75.96
7180;BME280;3631;42.152;24.756;2022-08-26T02:40:54;98660.72;;;25.07;76.05
7180;BME280;3631;42.152;24.756;2022-08-26T02:43:21;98659.91;;;25.06;76.46
7180;BME280;3631;42.152;24.756;2022-08-26T02:45:50;98653.09;;;25.04;76.53
7180;BME280;3631;42.152;24.756;2022-08-26T02:48:19;98648.25;;;24.99;76.37
7180;BME280;3631;42.152;24.756;2022-08-26T02:50:47;98653.88;;;24.96;76.96
7180;BME280;3631;42.152;24.756;2022-08-26T02:53:14;98649.22;;;24.98;76.62
7180;BME280;3631;42.152;24.756;2022-08-26T02:55:41;98652.56;;;25.00;77.20
7180;BME280;3631;42.152;24.756;2022-08-26T02:58:08;98632.25;;;24.91;76.80
7180;BME280;3631;42.152;24.756;2022-08-26T03:00:36;98653.09;;;25.04;76.62
7180;BME280;3631;42.152;24.756;2022-08-26T03:03:05;98650.38;;;24.95;76.93
7180;BME280;3631;42.152;24.756;2022-08-26T03:05:33;98650.91;;;24.99;76.71
7180;BME280;3631;42.152;24.756;2022-08-26T03:08:00;98639.22;;;24.92;76.46
7180;BME280;3631;42.152;24.756;2022-08-26T03:10:27;98664.72;;;25.03;75.66
7180;BME280;3631;42.152;24.756;2022-08-26T03:12:57;98651.88;;;24.98;76.11
7180;BME280;3631;42.152;24.756;2022-08-26T03:15:25;98657.50;;;24.95;76.14
7180;BME280;3631;42.152;24.756;2022-08-26T03:17:53;98645.91;;;24.96;75.75
7180;BME280;3631;42.152;24.756;2022-08-26T03:20:22;98643.25;;;24.96;75.83
7180;BME280;3631;42.152;24.756;2022-08-26T03:22:49;98652.19;;;24.95;74.89
7180;BME280;3631;42.152;24.756;2022-08-26T03:25:19;98649.00;;;24.91;74.88
7180;BME280;3631;42.152;24.756;2022-08-26T03:27:46;98650.00;;;24.90;75.00
7180;BME280;3631;42.152;24.756;2022-08-26T03:30:14;98646.28;;;24.83;74.89
7180;BME280;3631;42.152;24.756;2022-08-26T03:32:59;98665.78;;;24.92;74.83
7180;BME280;3631;42.152;24.756;2022-08-26T03:35:27;98663.97;;;24.92;75.01
7180;BME280;3631;42.152;24.756;2022-08-26T03:37:54;98636.16;;;24.79;74.62
7180;BME280;3631;42.152;24.756;2022-08-26T03:40:22;98657.13;;;24.90;74.34
7180;BME280;3631;42.152;24.756;2022-08-26T03:42:49;98658.75;;;24.83;75.16
7180;BME280;3631;42.152;24.756;2022-08-26T03:45:18;98656.53;;;24.78;75.66
7180;BME280;3631;42.152;24.756;2022-08-26T03:47:45;98661.16;;;24.76;75.25
7180;BME280;3631;42.152;24.756;2022-08-26T03:50:15;98664.06;;;24.83;74.96
7180;BME280;3631;42.152;24.756;2022-08-26T03:52:43;98671.34;;;24.81;75.14
7180;BME280;3631;42.152;24.756;2022-08-26T03:55:12;98671.19;;;24.82;75.56
7180;BME280;3631;42.152;24.756;2022-08-26T03:57:39;98663.53;;;24.79;74.94
7180;BME280;3631;42.152;24.756;2022-08-26T04:00:09;98642.25;;;24.71;75.13
7180;BME280;3631;42.152;24.756;2022-08-26T04:02:38;98668.34;;;24.84;74.64
7180;BME280;3631;42.152;24.756;2022-08-26T04:05:06;98653.19;;;24.76;74.89
7180;BME280;3631;42.152;24.756;2022-08-26T04:07:33;98655.06;;;24.84;75.04
7180;BME280;3631;42.152;24.756;2022-08-26T04:10:03;98657.56;;;24.85;74.76
7180;BME280;3631;42.152;24.756;2022-08-26T04:12:30;98655.59;;;24.87;74.16
7180;BME280;3631;42.152;24.756;2022-08-26T04:14:57;98649.16;;;24.90;73.77
7180;BME280;3631;42.152;24.756;2022-08-26T04:17:24;98657.34;;;24.96;73.48
7180;BME280;3631;42.152;24.756;2022-08-26T04:19:51;98659.56;;;25.01;73.27
7180;BME280;3631;42.152;24.756;2022-08-26T04:22:18;98666.56;;;25.10;72.53
7180;BME280;3631;42.152;24.756;2022-08-26T04:24:45;98664.78;;;25.19;72.29
7180;BME280;3631;42.152;24.756;2022-08-26T04:27:14;98673.66;;;25.27;72.11
7180;BME280;3631;42.152;24.756;2022-08-26T04:29:41;98673.88;;;25.42;71.62
7180;BME280;3631;42.152;24.756;2022-08-26T04:32:08;98665.63;;;25.53;70.58
7180;BME280;3631;42.152;24.756;2022-08-26T04:34:35;98672.56;;;25.72;70.30
7180;BME280;3631;42.152;24.756;2022-08-26T04:37:03;98672.59;;;25.80;69.58
7180;BME280;3631;42.152;24.756;2022-08-26T04:39:30;98670.81;;;25.97;69.05
7180;BME280;3631;42.152;24.756;2022-08-26T04:41:57;98668.50;;;26.10;68.28
7180;BME280;3631;42.152;24.756;2022-08-26T04:44:28;98672.09;;;26.59;66.80
7180;BME280;3631;42.152;24.756;2022-08-26T04:46:56;98677.13;;;27.50;63.58
7180;BME280;3631;42.152;24.756;2022-08-26T04:49:24;98675.13;;;28.30;60.52
7180;BME280;3631;42.152;24.756;2022-08-26T04:51:51;98677.47;;;28.94;57.60
7180;BME280;3631;42.152;24.756;2022-08-26T04:54:18;98675.41;;;29.33;56.68
7180;BME280;3631;42.152;24.756;2022-08-26T04:56:46;98678.47;;;29.59;55.10
7180;BME280;3631;42.152;24.756;2022-08-26T04:59:15;98651.53;;;29.32;54.96
7180;BME280;3631;42.152;24.756;2022-08-26T05:01:44;98689.63;;;29.63;54.69
7180;BME280;3631;42.152;24.756;2022-08-26T05:04:11;98683.09;;;29.66;54.74
7180;BME280;3631;42.152;24.756;2022-08-26T05:06:38;98687.69;;;29.42;55.18
7180;BME280;3631;42.152;24.756;2022-08-26T05:09:05;98680.00;;;29.10;55.42
7180;BME280;3631;42.152;24.756;2022-08-26T05:11:32;98682.59;;;29.33;55.16
7180;BME280;3631;42.152;24.756;2022-08-26T05:13:59;98695.59;;;29.80;53.94
7180;BME280;3631;42.152;24.756;2022-08-26T05:16:26;98703.00;;;30.50;52.14
7180;BME280;3631;42.152;24.756;2022-08-26T05:18:55;98699.75;;;30.97;50.46
7180;BME280;3631;42.152;24.756;2022-08-26T05:21:24;98705.94;;;30.97;49.92
7180;BME280;3631;42.152;24.756;2022-08-26T05:23:51;98708.91;;;30.60;50.88
7180;BME280;3631;42.152;24.756;2022-08-26T05:26:19;98708.31;;;30.07;52.43
7180;BME280;3631;42.152;24.756;2022-08-26T05:28:46;98709.66;;;29.52;53.31
7180;BME280;3631;42.152;24.756;2022-08-26T05:31:15;98705.72;;;29.11;54.33
7180;BME280;3631;42.152;24.756;2022-08-26T05:33:42;98705.75;;;28.65;56.25
7180;BME280;3631;42.152;24.756;2022-08-26T05:36:13;98710.94;;;28.59;56.43
7180;BME280;3631;42.152;24.756;2022-08-26T05:38:42;98709.47;;;28.56;56.67
7180;BME280;3631;42.152;24.756;2022-08-26T05:41:14;98706.25;;;28.38;57.33
7180;BME280;3631;42.152;24.756;2022-08-26T05:43:42;98707.94;;;28.39;57.43
7180;BME280;3631;42.152;24.756;2022-08-26T05:46:09;98706.66;;;28.27;58.21
7180;BME280;3631;42.152;24.756;2022-08-26T05:48:37;98719.44;;;28.08;58.55
7180;BME280;3631;42.152;24.756;2022-08-26T05:51:05;98714.75;;;28.41;57.87
7180;BME280;3631;42.152;24.756;2022-08-26T05:53:35;98721.53;;;29.50;55.04
7180;BME280;3631;42.152;24.756;2022-08-26T05:56:03;98733.13;;;30.52;51.02
7180;BME280;3631;42.152;24.756;2022-08-26T05:58:32;98732.59;;;31.27;48.55
7180;BME280;3631;42.152;24.756;2022-08-26T06:01:02;98746.16;;;31.19;48.76
7180;BME280;3631;42.152;24.756;2022-08-26T06:03:31;98747.69;;;30.64;50.07
7180;BME280;3631;42.152;24.756;2022-08-26T06:06:02;98747.44;;;30.08;51.11
7180;BME280;3631;42.152;24.756;2022-08-26T06:08:29;98735.75;;;29.65;52.76
7180;BME280;3631;42.152;24.756;2022-08-26T06:11:02;98728.22;;;29.31;53.54
7180;BME280;3631;42.152;24.756;2022-08-26T06:13:30;98725.53;;;29.16;54.76
7180;BME280;3631;42.152;24.756;2022-08-26T06:16:00;98729.69;;;29.19;53.96
7180;BME280;3631;42.152;24.756;2022-08-26T06:18:30;98728.97;;;28.87;54.98
7180;BME280;3631;42.152;24.756;2022-08-26T06:21:00;98733.50;;;28.56;55.93
7180;BME280;3631;42.152;24.756;2022-08-26T06:23:28;98740.34;;;28.28;56.96
7180;BME280;3631;42.152;24.756;2022-08-26T06:26:15;98742.78;;;28.37;56.66
7180;BME280;3631;42.152;24.756;2022-08-26T06:28:42;98742.47;;;28.40;56.22
7180;BME280;3631;42.152;24.756;2022-08-26T06:31:09;98734.78;;;28.37;56.10
7180;BME280;3631;42.152;24.756;2022-08-26T06:33:36;98760.56;;;28.53;56.03
7180;BME280;3631;42.152;24.756;2022-08-26T06:36:04;98759.91;;;28.51;55.65
7180;BME280;3631;42.152;24.756;2022-08-26T06:38:31;98763.41;;;28.51;55.99
7180;BME280;3631;42.152;24.756;2022-08-26T06:40:58;98773.03;;;28.61;55.75
7180;BME280;3631;42.152;24.756;2022-08-26T06:43:27;98761.84;;;28.57;56.55
7180;BME280;3631;42.152;24.756;2022-08-26T06:46:02;98771.84;;;28.63;56.46
7180;BME280;3631;42.152;24.756;2022-08-26T06:48:29;98769.50;;;28.91;54.87
7180;BME280;3631;42.152;24.756;2022-08-26T06:51:07;98773.66;;;28.94;54.93
7180;BME280;3631;42.152;24.756;2022-08-26T06:53:35;98766.63;;;28.93;55.19
7180;BME280;3631;42.152;24.756;2022-08-26T06:56:04;98777.50;;;28.91;54.88
7180;BME280;3631;42.152;24.756;2022-08-26T06:58:34;98779.72;;;28.87;55.56
7180;BME280;3631;42.152;24.756;2022-08-26T07:01:02;98761.28;;;28.93;55.00
7180;BME280;3631;42.152;24.756;2022-08-26T07:03:29;98780.47;;;28.96;54.86
7180;BME280;3631;42.152;24.756;2022-08-26T07:06:00;98774.97;;;28.98;54.31
7180;BME280;3631;42.152;24.756;2022-08-26T07:08:27;98776.59;;;29.21;53.89
7180;BME280;3631;42.152;24.756;2022-08-26T07:10:54;98789.13;;;29.58;53.26
7180;BME280;3631;42.152;24.756;2022-08-26T07:13:21;98787.69;;;30.51;50.75
7180;BME280;3631;42.152;24.756;2022-08-26T07:15:50;98783.34;;;31.28;49.18
7180;BME280;3631;42.152;24.756;2022-08-26T07:18:17;98787.97;;;31.41;48.34
7180;BME280;3631;42.152;24.756;2022-08-26T07:20:44;98784.69;;;31.18;48.75
7180;BME280;3631;42.152;24.756;2022-08-26T07:23:11;98796.69;;;31.00;48.75
7180;BME280;3631;42.152;24.756;2022-08-26T07:25:38;98800.91;;;30.88;49.04
7180;BME280;3631;42.152;24.756;2022-08-26T07:28:05;98799.38;;;30.79;49.49
7180;BME280;3631;42.152;24.756;2022-08-26T07:30:36;98787.31;;;30.68;49.59
7180;BME280;3631;42.152;24.756;2022-08-26T07:33:06;98799.81;;;30.83;49.69
7180;BME280;3631;42.152;24.756;2022-08-26T07:35:33;98806.44;;;31.08;49.61
7180;BME280;3631;42.152;24.756;2022-08-26T07:38:00;98799.13;;;31.17;49.11
7180;BME280;3631;42.152;24.756;2022-08-26T07:40:27;98801.72;;;31.81;47.90
7180;BME280;3631;42.152;24.756;2022-08-26T07:42:58;98793.41;;;32.10;45.77
7180;BME280;3631;42.152;24.756;2022-08-26T07:45:27;98800.69;;;31.82;46.32
7180;BME280;3631;42.152;24.756;2022-08-26T07:47:54;98787.75;;;31.36;47.91
7180;BME280;3631;42.152;24.756;2022-08-26T07:50:22;98788.69;;;31.07;48.41
7180;BME280;3631;42.152;24.756;2022-08-26T07:52:49;98781.19;;;30.75;49.95
7180;BME280;3631;42.152;24.756;2022-08-26T07:55:16;98794.84;;;30.58;48.62
7180;BME280;3631;42.152;24.756;2022-08-26T07:57:43;98783.59;;;30.33;50.19
7180;BME280;3631;42.152;24.756;2022-08-26T08:00:12;98784.09;;;30.22;51.39
7180;BME280;3631;42.152;24.756;2022-08-26T08:02:41;98783.78;;;30.17;51.23
7180;BME280;3631;42.152;24.756;2022-08-26T08:05:09;98786.59;;;30.09;52.25
7180;BME280;3631;42.152;24.756;2022-08-26T08:07:38;98784.72;;;29.95;52.62
7180;BME280;3631;42.152;24.756;2022-08-26T08:10:06;98782.97;;;29.87;52.38
7180;BME280;3631;42.152;24.756;2022-08-26T08:12:34;98791.25;;;29.92;51.95
7180;BME280;3631;42.152;24.756;2022-08-26T08:15:01;98793.03;;;29.85;52.10
7180;BME280;3631;42.152;24.756;2022-08-26T08:17:28;98794.75;;;29.93;52.33
7180;BME280;3631;42.152;24.756;2022-08-26T08:19:55;98792.00;;;30.16;52.20
7180;BME280;3631;42.152;24.756;2022-08-26T08:22:22;98793.13;;;30.07;52.73
7180;BME280;3631;42.152;24.756;2022-08-26T08:24:50;98791.28;;;30.22;52.58
7180;BME280;3631;42.152;24.756;2022-08-26T08:27:17;98780.41;;;30.09;52.85
7180;BME280;3631;42.152;24.756;2022-08-26T08:29:44;98785.47;;;30.18;52.93
7180;BME280;3631;42.152;24.756;2022-08-26T08:32:11;98785.75;;;30.23;52.67
7180;BME280;3631;42.152;24.756;2022-08-26T08:34:38;98795.88;;;30.28;52.64
7180;BME280;3631;42.152;24.756;2022-08-26T08:37:05;98786.28;;;30.19;51.75
7180;BME280;3631;42.152;24.756;2022-08-26T08:39:33;98796.59;;;30.37;51.63
7180;BME280;3631;42.152;24.756;2022-08-26T08:42:30;98797.50;;;30.44;51.77
7180;BME280;3631;42.152;24.756;2022-08-26T08:45:04;98796.22;;;30.54;52.35
7180;BME280;3631;42.152;24.756;2022-08-26T08:47:35;98785.06;;;30.93;50.96
7180;BME280;3631;42.152;24.756;2022-08-26T08:50:07;98797.91;;;31.68;49.24
7180;BME280;3631;42.152;24.756;2022-08-26T08:52:37;98793.84;;;32.14;47.78
7180;BME280;3631;42.152;24.756;2022-08-26T08:55:07;98794.13;;;32.25;48.21
7180;BME280;3631;42.152;24.756;2022-08-26T08:57:48;98799.72;;;32.30;47.92
7180;BME280;3631;42.152;24.756;2022-08-26T09:00:21;98797.72;;;32.45;47.85
7180;BME280;3631;42.152;24.756;2022-08-26T09:02:51;98795.59;;;32.34;47.19
7180;BME280;3631;42.152;24.756;2022-08-26T09:05:21;98792.97;;;32.06;47.24
7180;BME280;3631;42.152;24.756;2022-08-26T09:07:52;98792.91;;;31.93;48.47
7180;BME280;3631;42.152;24.756;2022-08-26T09:10:32;98792.66;;;31.82;48.10
7180;BME280;3631;42.152;24.756;2022-08-26T09:13:05;98794.53;;;31.88;48.15
7180;BME280;3631;42.152;24.756;2022-08-26T09:15:45;98742.22;;;31.77;46.95
7180;BME280;3631;42.152;24.756;2022-08-26T09:18:27;98791.75;;;32.09;46.05
7180;BME280;3631;42.152;24.756;2022-08-26T09:20:59;98799.84;;;32.16;44.21
7180;BME280;3631;42.152;24.756;2022-08-26T09:23:27;98801.38;;;32.31;44.76
7180;BME280;3631;42.152;24.756;2022-08-26T09:25:56;98793.56;;;32.36;43.90
7180;BME280;3631;42.152;24.756;2022-08-26T09:28:28;98790.88;;;33.37;41.24
7180;BME280;3631;42.152;24.756;2022-08-26T09:31:02;98797.31;;;34.40;39.47
7180;BME280;3631;42.152;24.756;2022-08-26T09:33:35;98789.03;;;35.36;38.27
7180;BME280;3631;42.152;24.756;2022-08-26T09:36:18;98806.69;;;35.81;36.67
7180;BME280;3631;42.152;24.756;2022-08-26T09:38:49;98792.56;;;35.36;36.36
7180;BME280;3631;42.152;24.756;2022-08-26T09:41:25;98794.56;;;34.46;36.77
7180;BME280;3631;42.152;24.756;2022-08-26T09:44:12;98787.78;;;34.24;37.33
7180;BME280;3631;42.152;24.756;2022-08-26T09:46:43;98792.78;;;34.27;37.26
7180;BME280;3631;42.152;24.756;2022-08-26T09:49:28;98795.69;;;34.26;36.91
7180;BME280;3631;42.152;24.756;2022-08-26T09:52:12;98803.09;;;34.37;36.68
7180;BME280;3631;42.152;24.756;2022-08-26T09:54:44;98799.97;;;34.84;36.20
7180;BME280;3631;42.152;24.756;2022-08-26T09:57:14;98803.34;;;34.73;34.76
7180;BME280;3631;42.152;24.756;2022-08-26T09:59:44;98811.88;;;34.19;33.30
7180;BME280;3631;42.152;24.756;2022-08-26T10:02:34;98815.25;;;33.95;33.88
7180;BME280;3631;42.152;24.756;2022-08-26T10:05:06;98815.78;;;34.30;33.40
7180;BME280;3631;42.152;24.756;2022-08-26T10:07:38;98810.41;;;34.68;33.43
7180;BME280;3631;42.152;24.756;2022-08-26T10:10:10;98812.16;;;35.25;33.25
7180;BME280;3631;42.152;24.756;2022-08-26T10:12:49;98810.28;;;34.94;33.32
7180;BME280;3631;42.152;24.756;2022-08-26T10:15:20;98796.09;;;34.67;34.49
7180;BME280;3631;42.152;24.756;2022-08-26T10:17:54;98813.94;;;34.30;32.11
7180;BME280;3631;42.152;24.756;2022-08-26T10:20:28;98813.78;;;34.05;31.96
7180;BME280;3631;42.152;24.756;2022-08-26T10:22:59;98813.69;;;34.38;32.46
7180;BME280;3631;42.152;24.756;2022-08-26T10:25:31;98788.66;;;34.11;31.76
7180;BME280;3631;42.152;24.756;2022-08-26T10:28:05;98794.88;;;34.18;31.41
7180;BME280;3631;42.152;24.756;2022-08-26T10:30:37;98821.72;;;34.51;30.43
7180;BME280;3631;42.152;24.756;2022-08-26T10:33:08;98822.13;;;34.48;31.29
7180;BME280;3631;42.152;24.756;2022-08-26T10:35:42;98825.13;;;34.27;30.11
7180;BME280;3631;42.152;24.756;2022-08-26T10:38:13;98826.88;;;33.75;30.73
7180;BME280;3631;42.152;24.756;2022-08-26T10:40:50;98825.44;;;33.40;31.94
7180;BME280;3631;42.152;24.756;2022-08-26T10:43:23;98840.94;;;33.31;32.65
7180;BME280;3631;42.152;24.756;2022-08-26T10:45:55;98824.09;;;32.90;34.30
7180;BME280;3631;42.152;24.756;2022-08-26T10:48:31;98839.59;;;32.33;34.19
7180;BME280;3631;42.152;24.756;2022-08-26T10:51:01;98831.47;;;31.86;35.08
7180;BME280;3631;42.152;24.756;2022-08-26T10:53:36;98824.50;;;31.63;36.09
7180;BME280;3631;42.152;24.756;2022-08-26T10:56:10;98827.25;;;31.49;35.40
7180;BME280;3631;42.152;24.756;2022-08-26T10:58:52;98825.19;;;31.23;35.26
7180;BME280;3631;42.152;24.756;2022-08-26T11:01:28;98822.88;;;31.20;35.75
7180;BME280;3631;42.152;24.756;2022-08-26T11:04:35;98821.72;;;31.29;35.74
7180;BME280;3631;42.152;24.756;2022-08-26T11:07:35;98825.41;;;31.28;36.17
7180;BME280;3631;42.152;24.756;2022-08-26T11:12:54;98825.56;;;31.20;36.27
7180;BME280;3631;42.152;24.756;2022-08-26T11:18:44;98799.69;;;31.33;36.75
7180;BME280;3631;42.152;24.756;2022-08-26T11:22:02;98804.81;;;31.56;36.11
7180;BME280;3631;42.152;24.756;2022-08-26T11:25:02;98804.53;;;31.72;36.06
7180;BME280;3631;42.152;24.756;2022-08-26T11:27:55;98803.59;;;31.87;36.80
7180;BME280;3631;42.152;24.756;2022-08-26T11:30:44;98798.13;;;31.73;35.73
7180;BME280;3631;42.152;24.756;2022-08-26T11:39:26;98798.44;;;31.57;36.54
7180;BME280;3631;42.152;24.756;2022-08-26T11:41:56;98791.78;;;31.53;37.49
7180;BME280;3631;42.152;24.756;2022-08-26T11:44:26;98797.00;;;31.61;38.63
7180;BME280;3631;42.152;24.756;2022-08-26T11:46:56;98798.13;;;31.67;40.04
7180;BME280;3631;42.152;24.756;2022-08-26T11:49:24;98793.72;;;31.59;39.32
7180;BME280;3631;42.152;24.756;2022-08-26T11:52:11;98791.28;;;31.36;37.73
7180;BME280;3631;42.152;24.756;2022-08-26T11:54:40;98792.22;;;31.29;38.50
7180;BME280;3631;42.152;24.756;2022-08-26T11:57:25;98785.16;;;31.21;39.55
7180;BME280;3631;42.152;24.756;2022-08-26T11:59:52;98774.25;;;31.23;38.55
7180;BME280;3631;42.152;24.756;2022-08-26T12:02:21;98765.56;;;31.21;37.90
7180;BME280;3631;42.152;24.756;2022-08-26T12:04:49;98754.84;;;31.21;37.74
7180;BME280;3631;42.152;24.756;2022-08-26T12:07:21;98750.69;;;31.46;37.18
7180;BME280;3631;42.152;24.756;2022-08-26T12:09:51;98752.38;;;31.54;37.21
7180;BME280;3631;42.152;24.756;2022-08-26T12:12:23;98750.53;;;31.54;36.37
7180;BME280;3631;42.152;24.756;2022-08-26T12:15:06;98754.16;;;31.68;36.90
7180;BME280;3631;42.152;24.756;2022-08-26T12:17:36;98755.06;;;31.54;36.51
7180;BME280;3631;42.152;24.756;2022-08-26T12:20:03;98755.81;;;31.41;37.07
7180;BME280;3631;42.152;24.756;2022-08-26T12:22:33;98754.63;;;31.50;37.07
7180;BME280;3631;42.152;24.756;2022-08-26T12:25:02;98756.53;;;31.56;35.58
7180;BME280;3631;42.152;24.756;2022-08-26T12:27:31;98745.28;;;31.67;35.05
7180;BME280;3631;42.152;24.756;2022-08-26T12:30:00;98738.38;;;31.58;34.72
7180;BME280;3631;42.152;24.756;2022-08-26T12:32:28;98708.16;;;31.43;35.49
7180;BME280;3631;42.152;24.756;2022-08-26T12:34:57;98734.88;;;31.58;35.84
7180;BME280;3631;42.152;24.756;2022-08-26T12:37:25;98736.06;;;31.49;35.62
7180;BME280;3631;42.152;24.756;2022-08-26T12:39:54;98741.38;;;31.42;35.52
7180;BME280;3631;42.152;24.756;2022-08-26T12:42:42;98719.69;;;31.37;34.64
7180;BME280;3631;42.152;24.756;2022-08-26T12:45:09;98729.41;;;31.17;34.44
7180;BME280;3631;42.152;24.756;2022-08-26T12:47:37;98730.94;;;31.04;35.27
7180;BME280;3631;42.152;24.756;2022-08-26T12:50:08;98729.31;;;31.25;35.40
7180;BME280;3631;42.152;24.756;2022-08-26T12:52:41;98720.47;;;31.31;35.96
7180;BME280;3631;42.152;24.756;2022-08-26T12:55:19;98723.88;;;31.46;35.59
7180;BME280;3631;42.152;24.756;2022-08-26T12:57:47;98722.69;;;31.55;35.92
7180;BME280;3631;42.152;24.756;2022-08-26T13:00:28;98722.44;;;31.50;35.54
7180;BME280;3631;42.152;24.756;2022-08-26T13:02:56;98717.47;;;31.47;34.71
7180;BME280;3631;42.152;24.756;2022-08-26T13:05:25;98709.66;;;31.52;35.21
7180;BME280;3631;42.152;24.756;2022-08-26T13:08:14;98706.41;;;31.57;36.81
7180;BME280;3631;42.152;24.756;2022-08-26T13:10:45;98713.41;;;31.58;36.09
7180;BME280;3631;42.152;24.756;2022-08-26T13:13:12;98716.31;;;31.63;35.44
7180;BME280;3631;42.152;24.756;2022-08-26T13:15:39;98714.75;;;31.68;36.08
7180;BME280;3631;42.152;24.756;2022-08-26T13:18:06;98712.16;;;31.54;36.60
7180;BME280;3631;42.152;24.756;2022-08-26T13:20:33;98707.59;;;31.54;35.59
7180;BME280;3631;42.152;24.756;2022-08-26T13:23:00;98714.00;;;31.53;35.46
7180;BME280;3631;42.152;24.756;2022-08-26T13:25:27;98689.59;;;31.42;34.30
7180;BME280;3631;42.152;24.756;2022-08-26T13:27:56;98702.78;;;31.43;34.38
7180;BME280;3631;42.152;24.756;2022-08-26T13:30:23;98710.19;;;31.34;34.21
7180;BME280;3631;42.152;24.756;2022-08-26T13:32:52;98689.31;;;31.30;34.86
7180;BME280;3631;42.152;24.756;2022-08-26T13:35:22;98706.13;;;31.45;34.99
7180;BME280;3631;42.152;24.756;2022-08-26T13:37:49;98703.81;;;31.42;34.51
7180;BME280;3631;42.152;24.756;2022-08-26T13:40:17;98710.53;;;31.25;34.79